Time;durP1;ratioP1;P1;durP2;ratioP2;P2;SDS_P1;SDS_P2;PMS_P1;PMS_P2;Temp;Humidity;BMP_temperature;BMP_pressure;BME280_temperature;BME280_humidity;BME280_pressure;Samples;Min_cycle;Max_cycle;Signal;HPM_P1;HPM_P2
2021/07/26 00:00:20;;;;;;;7.32;6.30;;;;;;;20.17;68.37;97917.22;5092967;28;20024;-71
2021/07/26 00:02:45;;;;;;;8.85;6.47;;;;;;;20.18;67.69;97913.25;5089195;28;20035;-71
2021/07/26 00:05:11;;;;;;;7.50;5.80;;;;;;;20.22;67.58;97901.00;5090779;28;20044;-71
2021/07/26 00:07:37;;;;;;;6.72;5.18;;;;;;;20.26;67.26;97891.91;5094519;28;20020;-71
2021/07/26 00:10:03;;;;;;;7.63;4.90;;;;;;;20.32;67.18;97887.63;5091652;28;20047;-71
2021/07/26 00:12:29;;;;;;;7.65;4.72;;;;;;;20.36;67.13;97874.53;5088936;28;20028;-69
2021/07/26 00:14:55;;;;;;;7.65;4.85;;;;;;;20.42;67.02;97875.00;5093330;28;20140;-68
2021/07/26 00:17:21;;;;;;;8.70;4.93;;;;;;;20.47;67.04;97878.28;5095064;28;20501;-71
2021/07/26 00:19:46;;;;;;;6.90;4.60;;;;;;;20.50;66.91;97869.19;5093680;28;20024;-70
2021/07/26 00:22:11;;;;;;;5.97;4.20;;;;;;;20.50;66.66;97873.94;5091547;28;20531;-70
2021/07/26 00:24:37;;;;;;;5.63;4.25;;;;;;;20.49;66.59;97853.66;5092457;28;20028;-70
2021/07/26 00:27:02;;;;;;;8.40;4.38;;;;;;;20.48;66.58;97860.41;5093845;28;20058;-70
2021/07/26 00:29:28;;;;;;;5.60;3.95;;;;;;;20.44;66.35;97873.47;5091460;28;20373;-70
2021/07/26 00:31:53;;;;;;;4.18;3.47;;;;;;;20.34;66.39;97885.25;5091350;28;20035;-71
2021/07/26 00:34:21;;;;;;;7.00;4.50;;;;;;;20.26;66.64;97889.94;5101187;28;20028;-71
2021/07/26 00:37:01;;;;;;;7.00;4.55;;;;;;;20.17;66.56;97898.56;5098115;28;20032;-70
2021/07/26 00:39:30;;;;;;;7.55;5.10;;;;;;;20.11;66.61;97899.22;5090569;28;20073;-71
2021/07/26 00:41:56;;;;;;;7.05;5.20;;;;;;;20.03;66.78;97904.69;5090789;28;20036;-71
2021/07/26 00:44:23;;;;;;;7.85;5.30;;;;;;;20.00;67.02;97904.63;5090186;28;20477;-71
2021/07/26 00:46:50;;;;;;;6.93;5.63;;;;;;;19.97;67.04;97919.28;5092287;28;20036;-71
2021/07/26 00:49:17;;;;;;;7.82;5.65;;;;;;;19.96;67.32;97937.16;5089362;28;20024;-70
2021/07/26 00:51:47;;;;;;;7.40;5.20;;;;;;;19.91;67.31;97952.22;5127086;27;20436;-71
2021/07/26 00:54:16;;;;;;;7.78;4.70;;;;;;;19.85;67.63;97950.88;5091288;28;20381;-70
2021/07/26 00:56:42;;;;;;;6.55;4.68;;;;;;;19.78;67.80;97941.22;5094469;28;20023;-71
2021/07/26 00:59:10;;;;;;;7.75;4.75;;;;;;;19.75;67.71;97943.97;5093768;28;20024;-71
2021/07/26 01:01:36;;;;;;;6.63;4.97;;;;;;;19.78;67.90;97937.63;5091509;28;20028;-71
2021/07/26 01:04:02;;;;;;;6.82;4.63;;;;;;;19.79;68.10;97940.03;5091294;28;20472;-71
2021/07/26 01:06:27;;;;;;;6.88;4.70;;;;;;;19.83;68.00;97940.09;5090116;28;20083;-71
2021/07/26 01:08:52;;;;;;;6.38;4.60;;;;;;;19.87;68.13;97929.84;5093868;28;20489;-71
2021/07/26 01:11:18;;;;;;;6.40;4.63;;;;;;;19.91;67.97;97922.38;5093690;28;20043;-71
2021/07/26 01:13:43;;;;;;;7.07;4.55;;;;;;;19.98;68.19;97915.34;5092136;28;20412;-71
2021/07/26 01:16:09;;;;;;;6.75;4.45;;;;;;;20.01;67.94;97912.59;5089487;28;20096;-71
2021/07/26 01:18:36;;;;;;;7.53;4.45;;;;;;;20.05;68.01;97896.75;5093105;28;20119;-71
2021/07/26 01:21:07;;;;;;;5.88;4.60;;;;;;;20.11;67.80;97888.91;5091041;28;20031;-71
2021/07/26 01:23:35;;;;;;;7.50;4.63;;;;;;;20.13;67.85;97892.13;5090084;28;20123;-71
2021/07/26 01:26:03;;;;;;;5.43;4.60;;;;;;;20.14;67.77;97902.09;5091471;28;20084;-71
2021/07/26 01:28:32;;;;;;;6.22;4.28;;;;;;;20.14;67.65;97907.66;5093541;28;20030;-71
2021/07/26 01:30:59;;;;;;;7.03;4.43;;;;;;;20.15;67.66;97914.84;5091573;28;20058;-71
2021/07/26 01:33:24;;;;;;;5.70;4.05;;;;;;;20.16;67.58;97922.00;5093624;28;20020;-71
2021/07/26 01:35:50;;;;;;;4.95;4.10;;;;;;;20.15;67.48;97934.31;5091713;28;20085;-71
2021/07/26 01:38:15;;;;;;;6.18;4.53;;;;;;;20.14;67.66;97931.88;5085737;28;20028;-71
2021/07/26 01:40:41;;;;;;;5.97;4.53;;;;;;;20.12;67.51;97923.09;5090030;28;20470;-71
2021/07/26 01:43:09;;;;;;;6.38;4.70;;;;;;;20.11;67.41;97927.06;5090006;28;20046;-70
2021/07/26 01:45:37;;;;;;;6.50;4.53;;;;;;;20.12;67.48;97923.09;5090472;28;20058;-70
2021/07/26 01:48:09;;;;;;;5.95;4.35;;;;;;;20.08;67.29;97923.84;5091667;28;20016;-71
2021/07/26 01:50:42;;;;;;;6.40;4.80;;;;;;;20.12;67.44;97928.69;5091812;28;20035;-71
2021/07/26 01:53:07;;;;;;;6.15;4.60;;;;;;;20.11;67.39;97927.88;5091033;28;20421;-71
2021/07/26 01:55:32;;;;;;;6.65;4.82;;;;;;;20.09;67.21;97921.88;5091328;28;20017;-71
2021/07/26 01:57:58;;;;;;;7.68;4.88;;;;;;;20.08;67.10;97914.72;5091670;28;20020;-71
2021/07/26 02:00:23;;;;;;;6.53;5.10;;;;;;;20.11;67.31;97919.53;5089368;28;20061;-71
2021/07/26 02:02:48;;;;;;;7.47;5.45;;;;;;;20.12;67.29;97925.88;5091716;28;20024;-71
2021/07/26 02:05:14;;;;;;;6.55;5.05;;;;;;;20.09;67.32;97935.81;5098638;28;20051;-71
2021/07/26 02:07:39;;;;;;;7.63;5.65;;;;;;;20.09;67.12;97935.81;5098894;28;20493;-71
2021/07/26 02:10:05;;;;;;;6.47;5.57;;;;;;;20.06;67.03;97953.25;5095364;28;20062;-71
2021/07/26 02:12:30;;;;;;;6.35;5.18;;;;;;;20.04;66.80;97961.97;5096535;28;20024;-71
2021/07/26 02:14:58;;;;;;;7.10;5.35;;;;;;;19.98;67.26;97957.88;5095487;28;20039;-71
2021/07/26 02:17:23;;;;;;;7.28;5.82;;;;;;;19.92;67.20;97954.59;5092976;28;20436;-71
2021/07/26 02:19:48;;;;;;;7.78;5.00;;;;;;;19.88;66.98;97964.88;5093425;28;20032;-70
2021/07/26 02:22:14;;;;;;;6.07;4.95;;;;;;;19.86;67.29;97958.84;5098281;28;20055;-71
2021/07/26 02:24:39;;;;;;;6.53;5.10;;;;;;;19.81;67.27;97953.56;5097634;28;20008;-71
2021/07/26 02:27:05;;;;;;;7.68;5.68;;;;;;;19.78;67.41;97954.31;5094300;28;20024;-72
2021/07/26 02:29:30;;;;;;;7.13;5.10;;;;;;;19.74;67.37;97947.91;5092870;28;20465;-71
2021/07/26 02:31:55;;;;;;;6.93;4.88;;;;;;;19.70;67.28;97949.81;5093087;28;20053;-71
2021/07/26 02:34:21;;;;;;;7.22;5.35;;;;;;;19.69;67.60;97946.22;5093370;28;20099;-72
2021/07/26 02:36:46;;;;;;;7.45;5.75;;;;;;;19.67;67.34;97947.78;5093497;28;20028;-71
2021/07/26 02:39:11;;;;;;;7.90;5.32;;;;;;;19.65;67.29;97967.59;5095731;28;20028;-71
2021/07/26 02:41:37;;;;;;;8.57;5.28;;;;;;;19.62;67.28;97962.78;5096011;28;20059;-71
2021/07/26 02:44:02;;;;;;;9.25;5.90;;;;;;;19.60;67.31;97974.28;5093441;28;20134;-71
2021/07/26 02:46:28;;;;;;;9.57;6.15;;;;;;;19.56;67.10;97983.75;5092612;28;20051;-71
2021/07/26 02:48:53;;;;;;;7.50;5.68;;;;;;;19.49;66.97;97974.09;5091998;28;20035;-71
2021/07/26 02:51:18;;;;;;;7.50;5.50;;;;;;;19.46;67.20;97972.03;5092824;28;20024;-71
2021/07/26 02:53:44;;;;;;;6.82;4.97;;;;;;;19.42;67.28;97965.59;5093506;28;20039;-71
2021/07/26 02:56:09;;;;;;;6.10;4.82;;;;;;;19.41;67.24;97957.59;5094080;28;20058;-71
2021/07/26 02:58:35;;;;;;;7.30;5.53;;;;;;;19.38;67.24;97963.91;5097267;28;20035;-71
2021/07/26 03:01:01;;;;;;;8.05;5.65;;;;;;;19.36;67.21;97964.28;5094875;28;20024;-71
2021/07/26 03:03:26;;;;;;;6.38;5.35;;;;;;;19.34;67.22;97959.09;5093886;28;20040;-71
2021/07/26 03:05:51;;;;;;;5.93;4.85;;;;;;;19.31;67.08;97950.69;5095193;28;20032;-71
2021/07/26 03:08:17;;;;;;;6.50;5.20;;;;;;;19.30;67.20;97954.63;5093931;28;20019;-71
2021/07/26 03:10:42;;;;;;;6.70;5.60;;;;;;;19.27;67.21;97961.75;5092302;28;20024;-71
2021/07/26 03:13:07;;;;;;;4.53;4.07;;;;;;;19.24;67.08;97965.25;5093025;28;20069;-71
2021/07/26 03:15:36;;;;;;;5.60;4.95;;;;;;;19.18;66.97;97959.16;5096576;28;20047;-71
2021/07/26 03:18:01;;;;;;;6.20;5.10;;;;;;;19.16;67.09;97969.84;5093378;28;20027;-70
2021/07/26 03:20:27;;;;;;;11.25;6.57;;;;;;;19.16;67.28;97974.59;5092315;28;20016;-71
2021/07/26 03:22:58;;;;;;;12.85;9.38;;;;;;;19.14;67.11;97977.78;5093851;28;20032;-71
2021/07/26 03:25:24;;;;;;;9.93;6.88;;;;;;;19.15;67.25;97967.44;5091327;28;20028;-71
2021/07/26 03:27:50;;;;;;;10.82;8.25;;;;;;;19.12;67.26;97969.00;5091406;28;20024;-71
2021/07/26 03:30:16;;;;;;;11.63;7.07;;;;;;;19.13;67.42;97972.56;5091512;28;20030;-71
2021/07/26 03:32:42;;;;;;;11.25;7.63;;;;;;;19.13;67.43;97980.91;5091656;28;20069;-71
2021/07/26 03:35:08;;;;;;;13.48;8.30;;;;;;;19.16;67.58;97982.94;5092644;28;20069;-71
2021/07/26 03:37:34;;;;;;;13.00;8.52;;;;;;;19.15;67.48;97996.06;5095598;28;20020;-71
2021/07/26 03:39:59;;;;;;;13.68;8.43;;;;;;;19.15;67.53;97995.25;5093658;28;20535;-71
2021/07/26 03:42:24;;;;;;;12.02;7.93;;;;;;;19.18;67.78;97986.16;5092223;28;20440;-71
2021/07/26 03:44:50;;;;;;;14.57;8.07;;;;;;;19.16;67.65;97982.94;5093108;28;20020;-71
2021/07/26 03:47:15;;;;;;;13.45;9.15;;;;;;;19.16;67.59;97999.63;5093895;28;20496;-71
2021/07/26 03:49:40;;;;;;;14.15;8.25;;;;;;;19.15;67.60;97992.47;5094138;28;20116;-71
2021/07/26 03:52:06;;;;;;;12.05;7.93;;;;;;;19.13;67.59;97992.84;5093558;28;20425;-71
2021/07/26 03:54:31;;;;;;;14.13;8.80;;;;;;;19.14;67.87;97994.44;5092399;28;20448;-71
2021/07/26 03:56:57;;;;;;;15.60;9.35;;;;;;;19.14;67.70;98000.00;5092549;28;20032;-70
2021/07/26 03:59:23;;;;;;;13.25;8.65;;;;;;;19.14;67.72;98007.53;5091394;28;20016;-71
2021/07/26 04:01:49;;;;;;;13.82;8.63;;;;;;;19.11;67.81;98006.28;5095740;28;20023;-71
2021/07/26 04:04:16;;;;;;;12.30;8.45;;;;;;;19.12;67.79;98002.34;5101866;28;20044;-71
2021/07/26 04:06:42;;;;;;;12.32;9.38;;;;;;;19.14;67.99;98013.09;5095838;28;20069;-71
2021/07/26 04:09:08;;;;;;;16.30;9.63;;;;;;;19.15;68.21;98020.25;5096319;28;20513;-71
2021/07/26 04:11:37;;;;;;;16.90;10.10;;;;;;;19.18;68.17;98019.53;5097677;28;20098;-70
2021/07/26 04:14:07;;;;;;;16.20;9.77;;;;;;;19.23;68.41;98026.75;5095861;28;20023;-71
2021/07/26 04:16:32;;;;;;;13.43;9.18;;;;;;;19.29;68.40;98036.44;5093312;28;20026;-71
2021/07/26 04:19:00;;;;;;;12.38;8.30;;;;;;;19.34;68.63;98022.22;5098762;28;20024;-71
2021/07/26 04:21:29;;;;;;;9.20;6.88;;;;;;;19.39;68.46;98027.50;5105726;28;20047;-71
2021/07/26 04:23:55;;;;;;;;;;;;;;;19.41;68.53;98019.59;5102417;28;20015;-72
2021/07/26 04:26:21;;;;;;;9.63;6.60;;;;;;;19.46;68.55;98021.28;5099817;28;19934;-71
2021/07/26 04:28:46;;;;;;;10.93;6.90;;;;;;;19.50;68.84;98033.28;5096757;28;20432;-71
2021/07/26 04:31:11;;;;;;;11.20;8.43;;;;;;;19.55;68.88;98035.78;5093197;28;20023;-71
2021/07/26 04:33:37;;;;;;;9.32;7.55;;;;;;;19.57;68.99;98044.56;5092008;28;20027;-71
2021/07/26 04:36:03;;;;;;;11.48;7.85;;;;;;;19.58;68.83;98032.25;5095845;28;20024;-71
2021/07/26 04:38:29;;;;;;;11.02;7.78;;;;;;;19.61;68.89;98039.06;5100998;27;20054;-72
2021/07/26 04:40:54;;;;;;;11.80;8.20;;;;;;;19.66;69.02;98041.53;5097847;28;20051;-70
2021/07/26 04:43:19;;;;;;;14.23;8.02;;;;;;;19.68;68.94;98049.53;5097425;28;20020;-70
2021/07/26 04:45:45;;;;;;;9.82;7.35;;;;;;;19.70;68.81;98045.19;5094105;28;20424;-71
2021/07/26 04:48:10;;;;;;;11.77;7.88;;;;;;;19.72;68.92;98045.63;5090783;28;20481;-72
2021/07/26 04:50:36;;;;;;;11.45;7.80;;;;;;;19.76;68.96;98045.72;5093239;28;20028;-71
2021/07/26 04:53:02;;;;;;;10.15;7.28;;;;;;;19.79;68.91;98053.31;5091849;28;20499;-71
2021/07/26 04:55:27;;;;;;;10.63;7.75;;;;;;;19.84;69.18;98053.00;5101931;28;20090;-70
2021/07/26 04:57:52;;;;;;;9.85;7.47;;;;;;;19.92;69.13;98051.22;5097810;28;20065;-71
2021/07/26 05:00:18;;;;;;;9.68;7.57;;;;;;;19.96;69.39;98054.88;5092241;28;20469;-71
2021/07/26 05:02:43;;;;;;;9.27;6.68;;;;;;;19.97;69.61;98048.09;5090913;28;20073;-70
2021/07/26 05:05:10;;;;;;;8.93;6.28;;;;;;;19.98;69.09;98058.06;5090686;28;20044;-71
2021/07/26 05:07:35;;;;;;;9.30;6.72;;;;;;;20.01;69.07;98051.75;5090743;28;20043;-71
2021/07/26 05:10:01;;;;;;;11.27;7.15;;;;;;;20.05;69.45;98051.84;5089443;28;20024;-71
2021/07/26 05:12:27;;;;;;;11.32;8.15;;;;;;;20.10;69.46;98059.06;5090125;28;20405;-71
2021/07/26 05:14:52;;;;;;;10.77;7.97;;;;;;;20.14;69.47;98059.94;5091035;28;20051;-71
2021/07/26 05:17:26;;;;;;;10.52;7.32;;;;;;;20.17;69.30;98057.25;5089177;28;20389;-71
2021/07/26 05:19:52;;;;;;;12.52;7.47;;;;;;;20.19;69.60;98059.66;5089596;28;20493;-71
2021/07/26 05:22:18;;;;;;;7.85;6.32;;;;;;;20.15;69.43;98056.81;5089948;28;20028;-72
2021/07/26 05:24:43;;;;;;;11.27;6.22;;;;;;;20.15;69.48;98059.59;5089685;28;20028;-71
2021/07/26 05:27:09;;;;;;;11.85;7.40;;;;;;;20.16;70.00;98061.19;5090877;28;20509;-71
2021/07/26 05:29:35;;;;;;;8.93;6.57;;;;;;;20.14;69.30;98063.56;5090092;28;21666;-71
2021/07/26 05:32:00;;;;;;;9.98;7.13;;;;;;;20.08;69.25;98056.69;5090206;28;20081;-71
2021/07/26 05:34:27;;;;;;;9.90;6.28;;;;;;;20.09;69.35;98063.84;5086527;28;20093;-71
2021/07/26 05:36:53;;;;;;;9.00;6.05;;;;;;;20.08;69.69;98059.47;5090180;28;20064;-71
2021/07/26 05:39:18;;;;;;;8.07;6.28;;;;;;;20.04;70.08;98062.16;5088639;28;20048;-72
2021/07/26 05:41:44;;;;;;;9.23;6.20;;;;;;;20.02;69.71;98058.16;5089828;28;20039;-72
2021/07/26 05:44:10;;;;;;;9.48;6.13;;;;;;;20.01;69.98;98064.88;5090931;28;20032;-72
2021/07/26 05:46:35;;;;;;;8.55;6.07;;;;;;;19.98;69.62;98063.63;5090429;28;20043;-72
2021/07/26 05:49:01;;;;;;;7.85;5.78;;;;;;;19.95;69.64;98058.84;5086447;28;20166;-71
2021/07/26 05:51:26;;;;;;;9.27;6.03;;;;;;;19.96;69.98;98063.22;5088805;28;20035;-72
2021/07/26 05:53:52;;;;;;;9.23;6.22;;;;;;;19.96;69.90;98066.00;5090247;28;20027;-71
2021/07/26 05:56:17;;;;;;;10.05;6.40;;;;;;;19.98;70.18;98076.75;5091064;28;20070;-71
2021/07/26 05:58:46;;;;;;;9.30;5.88;;;;;;;19.99;69.89;98070.03;5088886;28;20032;-71
2021/07/26 06:03:55;;;;;;;9.13;5.75;;;;;;;19.94;70.04;98085.06;5090843;28;20700;-71
2021/07/26 06:06:21;;;;;;;11.93;6.97;;;;;;;19.96;70.45;98076.31;5093757;28;20107;-69
2021/07/26 06:08:46;;;;;;;13.85;8.27;;;;;;;19.93;70.27;98077.88;5090954;28;20457;-70
2021/07/26 06:11:12;;;;;;;11.05;6.70;;;;;;;19.95;70.07;98086.66;5093796;28;20386;-70
2021/07/26 06:13:37;;;;;;;14.40;7.00;;;;;;;19.92;69.90;98088.19;5089305;28;20028;-70
2021/07/26 06:16:07;;;;;;;10.25;7.20;;;;;;;19.89;70.26;98088.91;5089442;28;20032;-70
2021/07/26 06:18:33;;;;;;;11.00;7.35;;;;;;;19.90;70.04;98087.75;5090170;28;20111;-70
2021/07/26 06:20:58;;;;;;;15.25;8.48;;;;;;;19.91;70.25;98091.34;5089651;28;20065;-70
2021/07/26 06:23:25;;;;;;;12.98;7.72;;;;;;;19.90;70.41;98095.31;5089664;28;20056;-71
2021/07/26 06:25:50;;;;;;;13.48;8.23;;;;;;;19.90;70.30;98086.97;5089299;28;20107;-70
2021/07/26 06:28:16;;;;;;;13.60;8.43;;;;;;;19.92;70.23;98093.75;5090264;28;20153;-70
2021/07/26 06:30:41;;;;;;;16.60;8.73;;;;;;;19.96;70.62;98093.03;5088479;28;20059;-69
2021/07/26 06:33:10;;;;;;;13.65;8.38;;;;;;;19.99;70.37;98095.84;5089187;28;20111;-70
2021/07/26 06:35:35;;;;;;;15.65;8.95;;;;;;;20.01;70.50;98099.06;5089942;28;20111;-69
2021/07/26 06:38:01;;;;;;;14.10;8.98;;;;;;;20.01;70.44;98106.63;5087549;28;20127;-70
2021/07/26 06:40:26;;;;;;;14.70;8.38;;;;;;;20.01;70.45;98095.50;5090416;28;20107;-70
2021/07/26 06:42:52;;;;;;;10.25;7.30;;;;;;;19.99;70.46;98095.06;5090179;28;20028;-70
2021/07/26 06:45:18;;;;;;;11.82;7.45;;;;;;;19.98;70.52;98090.69;5089659;28;20469;-70
2021/07/26 06:47:44;;;;;;;11.85;7.70;;;;;;;19.96;70.34;98087.44;5088929;28;20111;-70
2021/07/26 06:50:10;;;;;;;10.25;7.10;;;;;;;19.97;70.66;98091.84;5095258;28;20478;-70
2021/07/26 06:52:36;;;;;;;13.07;7.78;;;;;;;20.02;71.03;98089.56;5092894;28;20115;-70
2021/07/26 06:55:01;;;;;;;12.10;6.45;;;;;;;20.04;70.88;98092.00;5093556;28;20107;-70
2021/07/26 06:57:26;;;;;;;12.80;7.18;;;;;;;20.11;71.08;98099.66;5092884;28;20056;-72
2021/07/26 06:59:52;;;;;;;9.75;6.38;;;;;;;20.14;71.05;98108.09;5092694;28;20024;-71
2021/07/26 07:02:17;;;;;;;9.27;6.38;;;;;;;20.19;71.07;98102.19;5093211;28;20394;-72
2021/07/26 07:04:42;;;;;;;9.15;6.55;;;;;;;20.23;71.27;98100.28;5093403;28;20059;-71
2021/07/26 07:07:10;;;;;;;10.45;5.85;;;;;;;20.28;70.79;98109.50;5091882;28;20500;-71
2021/07/26 07:09:35;;;;;;;8.38;5.35;;;;;;;20.30;70.95;98107.16;5094998;28;20079;-71
2021/07/26 07:12:00;;;;;;;11.45;5.78;;;;;;;20.37;71.10;98118.44;5094956;28;20447;-71
2021/07/26 07:14:26;;;;;;;9.00;5.53;;;;;;;20.44;70.81;98118.56;5092390;28;20028;-71
2021/07/26 07:16:54;;;;;;;8.25;5.60;;;;;;;20.46;70.52;98116.22;5092514;28;20476;-71
2021/07/26 07:19:19;;;;;;;9.02;6.03;;;;;;;20.47;70.75;98106.69;5093122;28;20035;-71
2021/07/26 07:21:45;;;;;;;9.05;5.85;;;;;;;20.49;70.74;98115.47;5091523;28;20024;-70
2021/07/26 07:24:10;;;;;;;8.38;5.70;;;;;;;20.48;70.46;98115.84;5096782;28;20011;-69
2021/07/26 07:26:35;;;;;;;10.00;5.78;;;;;;;20.50;70.77;98119.88;5103297;28;20022;-71
2021/07/26 07:29:01;;;;;;;9.90;6.00;;;;;;;20.57;70.56;98118.41;5098027;28;20081;-71
2021/07/26 07:31:27;;;;;;;8.00;5.78;;;;;;;20.60;70.56;98129.59;5094810;28;20031;-70
2021/07/26 07:33:54;;;;;;;13.38;6.05;;;;;;;20.62;70.47;98138.38;5093273;28;20031;-71
2021/07/26 07:36:20;;;;;;;6.75;5.25;;;;;;;20.62;70.67;98127.25;5093190;28;20017;-70
2021/07/26 07:38:46;;;;;;;7.55;5.68;;;;;;;20.65;70.37;98134.84;5093936;28;20028;-69
2021/07/26 07:41:11;;;;;;;7.53;5.32;;;;;;;20.66;70.48;98132.84;5089610;28;20032;-70
2021/07/26 07:43:36;;;;;;;7.35;5.93;;;;;;;20.70;70.67;98133.72;5089186;28;20611;-70
2021/07/26 07:46:04;;;;;;;8.10;5.50;;;;;;;20.78;71.21;98124.34;5090222;28;20050;-70
2021/07/26 07:48:30;;;;;;;6.95;5.75;;;;;;;20.85;70.83;98126.44;5090466;28;20031;-70
2021/07/26 07:50:55;;;;;;;9.55;5.10;;;;;;;20.90;70.77;98139.25;5092084;28;20212;-71
2021/07/26 07:53:21;;;;;;;6.78;5.18;;;;;;;20.97;70.50;98142.16;5090568;28;20076;-72
2021/07/26 07:55:47;;;;;;;7.68;5.50;;;;;;;21.07;70.99;98141.50;5087942;28;20127;-71
2021/07/26 07:58:13;;;;;;;8.52;5.32;;;;;;;21.21;70.94;98140.13;5081646;28;20177;-71
2021/07/26 08:00:38;;;;;;;7.45;5.10;;;;;;;21.31;70.62;98130.31;5087474;28;20073;-71
2021/07/26 08:03:04;;;;;;;5.78;4.03;;;;;;;21.35;70.30;98134.78;5087013;28;20036;-71
2021/07/26 08:05:30;;;;;;;8.05;4.72;;;;;;;21.42;70.25;98148.00;5090146;28;20024;-70
2021/07/26 08:07:56;;;;;;;5.35;4.20;;;;;;;21.47;70.00;98156.06;5090145;28;20056;-71
2021/07/26 08:10:21;;;;;;;5.55;3.90;;;;;;;21.54;70.04;98144.19;5090426;28;20035;-71
2021/07/26 08:12:47;;;;;;;7.47;4.18;;;;;;;21.60;69.79;98148.25;5090765;28;20051;-68
2021/07/26 08:15:12;;;;;;;5.97;4.32;;;;;;;21.63;69.66;98147.53;5089823;28;20070;-68
2021/07/26 08:17:43;;;;;;;7.07;4.47;;;;;;;21.70;69.39;98149.59;5086040;28;20036;-69
2021/07/26 08:20:10;;;;;;;7.03;4.05;;;;;;;21.78;69.61;98153.31;5087966;28;20194;-70
2021/07/26 08:22:36;;;;;;;5.15;3.20;;;;;;;21.84;69.17;98154.56;5088823;28;20024;-69
2021/07/26 08:25:02;;;;;;;5.30;4.22;;;;;;;21.88;68.95;98160.22;5091079;28;20032;-69
2021/07/26 08:27:28;;;;;;;4.45;3.75;;;;;;;21.89;68.75;98159.81;5090544;28;20028;-69
2021/07/26 08:29:53;;;;;;;5.22;4.10;;;;;;;21.95;68.91;98163.88;5090015;28;20028;-69
2021/07/26 08:32:18;;;;;;;7.75;4.22;;;;;;;22.04;68.85;98168.38;5089136;28;20051;-71
2021/07/26 08:34:44;;;;;;;8.23;4.05;;;;;;;22.18;68.84;98164.94;5091362;28;20024;-71
2021/07/26 08:37:09;;;;;;;5.88;4.00;;;;;;;22.28;68.79;98164.25;5089497;28;20032;-69
2021/07/26 08:39:37;;;;;;;9.07;4.20;;;;;;;22.38;68.45;98168.34;5091562;28;20112;-69
2021/07/26 08:42:03;;;;;;;4.53;3.63;;;;;;;22.50;68.46;98170.91;5092803;28;20032;-69
2021/07/26 08:44:29;;;;;;;6.43;4.25;;;;;;;22.59;68.26;98173.38;5092493;28;20077;-69
2021/07/26 08:46:58;;;;;;;7.45;4.50;;;;;;;22.68;68.02;98175.84;5090719;28;20633;-69
2021/07/26 08:49:27;;;;;;;6.82;4.60;;;;;;;22.72;67.45;98179.50;5089548;28;20027;-70
2021/07/26 08:51:55;;;;;;;5.90;4.72;;;;;;;22.77;67.18;98179.16;5090417;28;20036;-69
2021/07/26 08:54:21;;;;;;;6.95;5.07;;;;;;;22.83;66.92;98176.78;5089290;28;20095;-71
2021/07/26 08:56:49;;;;;;;6.78;4.80;;;;;;;22.87;66.53;98192.41;5089589;28;20127;-69
2021/07/26 08:59:14;;;;;;;5.30;4.80;;;;;;;22.91;66.48;98184.06;5087412;28;20020;-70
2021/07/26 09:01:43;;;;;;;9.82;5.50;;;;;;;22.99;66.25;98184.94;5090253;28;20019;-70
2021/07/26 09:04:08;;;;;;;7.57;5.38;;;;;;;23.04;65.92;98170.56;5089939;28;20044;-71
2021/07/26 09:06:34;;;;;;;6.72;5.50;;;;;;;23.11;65.79;98175.44;5088600;28;20028;-72
2021/07/26 09:08:59;;;;;;;7.13;4.97;;;;;;;23.16;65.82;98173.06;5088617;28;20478;-71
2021/07/26 09:11:25;;;;;;;7.63;5.30;;;;;;;23.24;65.96;98176.75;5089910;28;20460;-72
2021/07/26 09:13:50;;;;;;;7.60;6.13;;;;;;;23.31;65.59;98185.19;5089853;28;20038;-69
2021/07/26 09:16:23;;;;;;;8.13;5.93;;;;;;;23.41;65.41;98180.88;5089195;28;20059;-69
2021/07/26 09:19:02;;;;;;;7.43;5.30;;;;;;;23.46;64.82;98174.91;5089071;28;20114;-69
2021/07/26 09:21:50;;;;;;;9.48;5.60;;;;;;;23.48;64.55;98169.72;5090572;28;20034;-71
2021/07/26 09:24:22;;;;;;;10.52;5.88;;;;;;;23.53;64.74;98170.53;5089888;28;20111;-72
2021/07/26 09:26:48;;;;;;;7.80;5.93;;;;;;;23.61;64.54;98180.59;5090399;28;20036;-71
2021/07/26 09:29:30;;;;;;;8.20;6.30;;;;;;;23.68;64.22;98175.03;5087642;28;20539;-72
2021/07/26 09:32:00;;;;;;;7.28;6.00;;;;;;;23.77;64.11;98177.47;5089758;28;20027;-75
2021/07/26 09:34:26;;;;;;;7.63;6.38;;;;;;;23.84;63.78;98173.94;5091136;28;20033;-72
2021/07/26 09:36:52;;;;;;;9.25;6.13;;;;;;;23.88;63.21;98169.94;5093636;28;20528;-72
2021/07/26 09:39:27;;;;;;;7.95;6.00;;;;;;;23.97;63.24;98175.16;5086880;28;20028;-72
2021/07/26 09:41:54;;;;;;;8.43;7.28;;;;;;;24.08;63.10;98173.25;5089538;28;20024;-73
2021/07/26 09:44:25;;;;;;;8.27;7.18;;;;;;;24.19;62.70;98180.91;5090945;28;20032;-72
2021/07/26 09:46:51;;;;;;;7.78;5.75;;;;;;;24.26;62.56;98183.69;5090285;28;20032;-72
2021/07/26 09:49:18;;;;;;;8.07;6.47;;;;;;;24.37;62.63;98195.75;5090551;28;20040;-72
2021/07/26 09:52:03;;;;;;;11.85;8.80;;;;;;;24.51;62.08;98199.81;5091403;28;20031;-71
2021/07/26 09:54:49;;;;;;;10.57;7.47;;;;;;;24.55;61.94;98202.59;5090976;28;20027;-69
2021/07/26 09:57:18;;;;;;;8.27;7.10;;;;;;;24.56;61.50;98204.22;5090673;28;20028;-69
2021/07/26 09:59:45;;;;;;;11.00;8.00;;;;;;;24.61;61.33;98212.22;5090417;28;20088;-70
2021/07/26 10:02:15;;;;;;;17.85;12.77;;;;;;;24.66;61.21;98214.66;5090813;28;20038;-69
2021/07/26 10:04:46;;;;;;;11.25;7.68;;;;;;;24.68;59.74;98212.25;5088162;28;20040;-69
2021/07/26 10:07:16;;;;;;;8.13;7.07;;;;;;;24.68;60.74;98201.03;5089237;28;20028;-68
2021/07/26 10:09:42;;;;;;;8.73;6.82;;;;;;;24.73;60.59;98197.06;5089233;28;20420;-68
2021/07/26 10:12:10;;;;;;;7.70;6.65;;;;;;;24.73;60.30;98197.06;5087414;28;20024;-68
2021/07/26 10:14:37;;;;;;;10.27;6.68;;;;;;;24.80;60.75;98200.69;5088998;28;20031;-69
2021/07/26 10:17:03;;;;;;;7.72;6.93;;;;;;;24.84;60.63;98202.69;5088754;28;20067;-68
2021/07/26 10:19:29;;;;;;;10.27;7.18;;;;;;;24.93;60.55;98198.28;5087556;28;20040;-68
2021/07/26 10:21:56;;;;;;;8.45;6.85;;;;;;;25.02;60.66;98211.13;5088715;28;20536;-67
2021/07/26 10:24:23;;;;;;;13.65;12.23;;;;;;;25.05;60.10;98213.13;5090077;28;20024;-67
2021/07/26 10:26:49;;;;;;;8.75;6.47;;;;;;;25.06;59.68;98214.75;5093246;28;20032;-67
2021/07/26 10:29:15;;;;;;;9.40;7.40;;;;;;;25.14;59.55;98207.91;5093807;28;20024;-68
2021/07/26 10:31:41;;;;;;;9.18;6.68;;;;;;;25.22;59.20;98205.94;5092652;28;20394;-66
2021/07/26 10:34:13;;;;;;;10.50;7.63;;;;;;;25.26;59.56;98207.50;5094237;28;20028;-68
2021/07/26 10:36:42;;;;;;;9.10;7.70;;;;;;;25.33;59.36;98203.09;5093823;28;20035;-68
2021/07/26 10:39:08;;;;;;;10.40;7.38;;;;;;;25.39;59.45;98205.09;5093797;28;20036;-68
2021/07/26 10:41:43;;;;;;;7.88;7.00;;;;;;;25.46;59.36;98201.53;5093532;28;20032;-68
2021/07/26 10:44:28;;;;;;;7.50;6.65;;;;;;;25.55;58.93;98192.69;5093973;28;20039;-68
2021/07/26 10:46:54;;;;;;;9.50;7.60;;;;;;;25.63;58.23;98188.66;5089535;28;20040;-68
2021/07/26 10:49:45;;;;;;;10.25;7.32;;;;;;;25.74;58.76;98188.63;5093508;28;20031;-69
2021/07/26 10:52:36;;;;;;;11.38;8.25;;;;;;;25.79;58.55;98188.22;5093739;28;20027;-68
2021/07/26 10:55:03;;;;;;;12.63;9.93;;;;;;;25.84;58.23;98189.78;5091246;28;20425;-69
2021/07/26 10:57:39;;;;;;;12.43;9.07;;;;;;;25.92;57.66;98197.00;5093552;28;20028;-69
2021/07/26 11:00:07;;;;;;;12.93;8.85;;;;;;;25.98;57.54;98186.13;5091900;28;20478;-70
2021/07/26 11:02:36;;;;;;;11.10;8.45;;;;;;;26.00;57.07;98195.75;5093066;28;20036;-70
2021/07/26 11:05:23;;;;;;;9.98;7.75;;;;;;;26.07;57.26;98199.75;5091842;28;20048;-69
2021/07/26 11:08:12;;;;;;;12.60;7.95;;;;;;;26.06;57.26;98189.72;5093037;28;20489;-69
2021/07/26 11:10:53;;;;;;;10.60;8.02;;;;;;;26.08;56.84;98184.50;5092528;28;20055;-69
2021/07/26 11:13:18;;;;;;;11.30;8.27;;;;;;;26.13;56.66;98178.47;5093253;28;20028;-70
2021/07/26 11:15:44;;;;;;;11.93;8.38;;;;;;;26.20;56.22;98180.44;5093484;28;20515;-70
2021/07/26 11:18:19;;;;;;;11.18;8.20;;;;;;;26.25;55.99;98175.19;5093346;28;20050;-68
2021/07/26 11:21:04;;;;;;;8.27;7.38;;;;;;;26.35;56.33;98172.75;5092725;28;20020;-69
2021/07/26 11:23:45;;;;;;;10.45;7.38;;;;;;;26.48;56.25;98162.63;5092899;28;20485;-69
2021/07/26 11:26:14;;;;;;;9.77;7.38;;;;;;;26.62;56.17;98170.16;5093284;28;20032;-69
2021/07/26 11:28:39;;;;;;;9.95;7.70;;;;;;;26.74;55.79;98178.09;5092840;28;20031;-69
2021/07/26 11:31:05;;;;;;;9.60;8.00;;;;;;;26.83;55.12;98166.44;5092645;28;20028;-69
2021/07/26 11:33:31;;;;;;;8.20;7.10;;;;;;;26.92;55.47;98176.41;5093135;28;20447;-68